This is the latest recevied weather packets stored in our database for station/object KD4EG. If no packets are shown the sender has not sent any weather packets the latest 10 day(s).
| Time | Temp. | Humidity | Pressure | Rain* | Wind** | Luminosity | Snow |
|---|---|---|---|---|---|---|---|
| 1778054974 | 18.89° C | 64% | 1012.8 hPa | 0 mm | - | 0 W/m² | - |
| 1778054671 | 17.78° C | 68% | 1012.9 hPa | 0 mm | - | 0 W/m² | - |
| 1778054368 | 16.67° C | 69% | 1013 hPa | 0 mm | - | 0 W/m² | - |
| 1778054066 | 15.56° C | 72% | 1013.2 hPa | 0 mm | - | 0 W/m² | - |
| 1778053762 | 15.56° C | 73% | 1013.2 hPa | 0 mm | - | 0 W/m² | - |
| 1778053460 | 15.56° C | 73% | 1012.8 hPa | 0 mm | - | 0 W/m² | - |
| 1778053157 | 16.11° C | 71% | 1013 hPa | 0 mm | - | 0 W/m² | - |
| 1778052855 | 15.56° C | 72% | 1012.9 hPa | 0 mm | - | 0 W/m² | - |
| 1778052552 | 16.11° C | 71% | 1013 hPa | 0 mm | - | 0 W/m² | - |
| 1778052249 | 16.11° C | 72% | 1013 hPa | 0 mm | - | 0 W/m² | - |
| 1778051947 | 16.11° C | 72% | 1012.9 hPa | 0 mm | - | 0 W/m² | - |
| 1778051645 | 16.11° C | 71% | 1013.3 hPa | 0 mm | - | 0 W/m² | - |
| 1778051341 | 16.11° C | 71% | 1013.3 hPa | 0 mm | - | 0 W/m² | - |
| 1778051038 | 16.11° C | 71% | 1013.4 hPa | 0 mm | - | 0 W/m² | - |
| 1778050735 | 16.11° C | 70% | 1013.3 hPa | 0 mm | - | 0 W/m² | - |
| 1778050433 | 16.11° C | 70% | 1013.4 hPa | 0 mm | - | 0 W/m² | - |
| 1778050129 | 16.11° C | 71% | 1013.7 hPa | 0 mm | - | 0 W/m² | - |
| 1778049824 | 16.11° C | 70% | 1013.4 hPa | 0 mm | - | 0 W/m² | - |
| 1778049522 | 16.11° C | 70% | 1013.3 hPa | 0 mm | - | 0 W/m² | - |
| 1778049220 | 16.67° C | 69% | 1013.4 hPa | 0 mm | - | 0 W/m² | - |
| 1778048918 | 16.11° C | 70% | 1013.4 hPa | 0 mm | - | 0 W/m² | - |
| 1778048615 | 16.11° C | 71% | 1013.5 hPa | 0 mm | - | 0 W/m² | - |
| 1778048311 | 15.56° C | 70% | 1013.6 hPa | 0 mm | - | 0 W/m² | - |
| 1778048008 | 15.56° C | 71% | 1013.8 hPa | 0 mm | - | 0 W/m² | - |
| 1778047706 | 15.56° C | 72% | 1013.4 hPa | 0 mm | - | 0 W/m² | - |
* Rain latest hour (hover to see other rain measurements)
** Current wind speed in m/s (hover to see current wind gust speed)